sensor_id;sensor_type;location;lat;lon;timestamp;temperature;humidity
11583;DHT22;34299;50.820;4.548;2024-01-27T00:02:20;4.20;99.90
11583;DHT22;34299;50.820;4.548;2024-01-27T00:04:47;3.90;99.90
11583;DHT22;34299;50.820;4.548;2024-01-27T00:07:15;4.00;99.90
11583;DHT22;34299;50.820;4.548;2024-01-27T00:09:43;4.00;99.90
11583;DHT22;34299;50.820;4.548;2024-01-27T00:12:10;4.00;99.90
11583;DHT22;34299;50.820;4.548;2024-01-27T00:14:38;4.30;99.90
11583;DHT22;34299;50.820;4.548;2024-01-27T00:17:05;4.30;99.90
11583;DHT22;34299;50.820;4.548;2024-01-27T00:19:32;4.20;99.90
11583;DHT22;34299;50.820;4.548;2024-01-27T00:21:59;4.20;99.90
11583;DHT22;34299;50.820;4.548;2024-01-27T00:24:26;4.10;99.90
11583;DHT22;34299;50.820;4.548;2024-01-27T00:26:54;3.90;99.90
11583;DHT22;34299;50.820;4.548;2024-01-27T00:29:21;3.80;99.90
11583;DHT22;34299;50.820;4.548;2024-01-27T00:31:48;3.90;99.90
11583;DHT22;34299;50.820;4.548;2024-01-27T00:34:16;3.90;99.90
11583;DHT22;34299;50.820;4.548;2024-01-27T00:36:43;4.10;99.90
11583;DHT22;34299;50.820;4.548;2024-01-27T00:39:14;4.20;99.90
11583;DHT22;34299;50.820;4.548;2024-01-27T00:41:41;4.00;99.90
11583;DHT22;34299;50.820;4.548;2024-01-27T00:44:10;4.00;99.90
11583;DHT22;34299;50.820;4.548;2024-01-27T00:46:36;3.80;99.90
11583;DHT22;34299;50.820;4.548;2024-01-27T00:49:04;4.00;99.90
11583;DHT22;34299;50.820;4.548;2024-01-27T00:51:31;3.80;99.90
11583;DHT22;34299;50.820;4.548;2024-01-27T00:53:58;3.80;99.90
11583;DHT22;34299;50.820;4.548;2024-01-27T00:56:24;3.80;99.90
11583;DHT22;34299;50.820;4.548;2024-01-27T00:58:51;3.80;99.90
11583;DHT22;34299;50.820;4.548;2024-01-27T01:01:20;3.80;99.90
11583;DHT22;34299;50.820;4.548;2024-01-27T01:03:47;4.00;99.90
11583;DHT22;34299;50.820;4.548;2024-01-27T01:06:14;4.20;99.90
11583;DHT22;34299;50.820;4.548;2024-01-27T01:08:40;4.30;99.90
11583;DHT22;34299;50.820;4.548;2024-01-27T01:11:07;4.00;99.90
11583;DHT22;34299;50.820;4.548;2024-01-27T01:13:35;3.90;99.90
11583;DHT22;34299;50.820;4.548;2024-01-27T01:16:02;3.90;99.90
11583;DHT22;34299;50.820;4.548;2024-01-27T01:18:31;3.80;99.90
11583;DHT22;34299;50.820;4.548;2024-01-27T01:20:58;3.70;99.90
11583;DHT22;34299;50.820;4.548;2024-01-27T01:23:25;3.70;99.90
11583;DHT22;34299;50.820;4.548;2024-01-27T01:25:52;3.60;99.90
11583;DHT22;34299;50.820;4.548;2024-01-27T01:28:18;3.70;99.90
11583;DHT22;34299;50.820;4.548;2024-01-27T01:30:45;3.70;99.90
11583;DHT22;34299;50.820;4.548;2024-01-27T01:33:11;3.50;99.90
11583;DHT22;34299;50.820;4.548;2024-01-27T01:35:42;3.50;99.90
11583;DHT22;34299;50.820;4.548;2024-01-27T01:38:09;3.50;99.90
11583;DHT22;34299;50.820;4.548;2024-01-27T01:40:36;3.50;99.90
11583;DHT22;34299;50.820;4.548;2024-01-27T01:43:05;3.70;99.90
11583;DHT22;34299;50.820;4.548;2024-01-27T01:45:35;3.60;99.90
11583;DHT22;34299;50.820;4.548;2024-01-27T01:48:02;3.60;99.90
11583;DHT22;34299;50.820;4.548;2024-01-27T01:50:30;3.50;99.90
11583;DHT22;34299;50.820;4.548;2024-01-27T01:52:58;3.70;99.90
11583;DHT22;34299;50.820;4.548;2024-01-27T01:55:25;3.20;99.90
11583;DHT22;34299;50.820;4.548;2024-01-27T01:57:53;3.50;99.90
11583;DHT22;34299;50.820;4.548;2024-01-27T02:00:20;3.20;99.90
11583;DHT22;34299;50.820;4.548;2024-01-27T02:02:47;3.10;99.90
11583;DHT22;34299;50.820;4.548;2024-01-27T02:05:14;3.10;99.90
11583;DHT22;34299;50.820;4.548;2024-01-27T02:07:41;2.90;99.90
11583;DHT22;34299;50.820;4.548;2024-01-27T02:10:15;2.90;99.90
11583;DHT22;34299;50.820;4.548;2024-01-27T02:12:42;2.70;99.90
11583;DHT22;34299;50.820;4.548;2024-01-27T02:15:10;2.70;99.90
11583;DHT22;34299;50.820;4.548;2024-01-27T02:17:39;2.60;99.90
11583;DHT22;34299;50.820;4.548;2024-01-27T02:20:07;2.50;99.90
11583;DHT22;34299;50.820;4.548;2024-01-27T02:22:35;2.50;99.90
11583;DHT22;34299;50.820;4.548;2024-01-27T02:25:04;2.50;99.90
11583;DHT22;34299;50.820;4.548;2024-01-27T02:27:31;2.40;99.90
11583;DHT22;34299;50.820;4.548;2024-01-27T02:30:00;2.40;99.90
11583;DHT22;34299;50.820;4.548;2024-01-27T02:32:27;2.40;99.90
11583;DHT22;34299;50.820;4.548;2024-01-27T02:34:54;2.40;99.90
11583;DHT22;34299;50.820;4.548;2024-01-27T02:37:21;2.40;99.90
11583;DHT22;34299;50.820;4.548;2024-01-27T02:39:48;2.20;99.90
11583;DHT22;34299;50.820;4.548;2024-01-27T02:42:16;2.30;99.90
11583;DHT22;34299;50.820;4.548;2024-01-27T02:44:43;2.30;99.90
11583;DHT22;34299;50.820;4.548;2024-01-27T02:47:10;2.10;99.90
11583;DHT22;34299;50.820;4.548;2024-01-27T02:49:37;2.10;99.90
11583;DHT22;34299;50.820;4.548;2024-01-27T02:52:04;2.00;99.90
11583;DHT22;34299;50.820;4.548;2024-01-27T02:54:31;2.00;99.90
11583;DHT22;34299;50.820;4.548;2024-01-27T02:56:58;1.90;99.90
11583;DHT22;34299;50.820;4.548;2024-01-27T02:59:27;1.90;99.90
11583;DHT22;34299;50.820;4.548;2024-01-27T03:01:54;1.80;99.90
11583;DHT22;34299;50.820;4.548;2024-01-27T03:04:24;1.80;99.90
11583;DHT22;34299;50.820;4.548;2024-01-27T03:06:51;1.70;99.90
11583;DHT22;34299;50.820;4.548;2024-01-27T03:09:18;1.70;99.90
11583;DHT22;34299;50.820;4.548;2024-01-27T03:11:45;1.80;99.90
11583;DHT22;34299;50.820;4.548;2024-01-27T03:14:12;1.80;99.90
11583;DHT22;34299;50.820;4.548;2024-01-27T03:16:41;1.70;99.90
11583;DHT22;34299;50.820;4.548;2024-01-27T03:19:08;1.70;99.90
11583;DHT22;34299;50.820;4.548;2024-01-27T03:21:35;1.70;99.90
11583;DHT22;34299;50.820;4.548;2024-01-27T03:24:03;1.80;99.90
11583;DHT22;34299;50.820;4.548;2024-01-27T03:26:30;1.80;99.90
11583;DHT22;34299;50.820;4.548;2024-01-27T03:28:57;1.60;99.90
11583;DHT22;34299;50.820;4.548;2024-01-27T03:31:29;1.50;99.90
11583;DHT22;34299;50.820;4.548;2024-01-27T03:33:58;1.50;99.90
11583;DHT22;34299;50.820;4.548;2024-01-27T03:36:25;1.50;99.90
11583;DHT22;34299;50.820;4.548;2024-01-27T03:38:52;1.60;99.90
11583;DHT22;34299;50.820;4.548;2024-01-27T03:41:20;1.60;99.90
11583;DHT22;34299;50.820;4.548;2024-01-27T03:43:46;1.60;99.90
11583;DHT22;34299;50.820;4.548;2024-01-27T03:46:13;1.50;99.90
11583;DHT22;34299;50.820;4.548;2024-01-27T03:48:40;1.40;99.90
11583;DHT22;34299;50.820;4.548;2024-01-27T03:51:09;1.50;99.90
11583;DHT22;34299;50.820;4.548;2024-01-27T03:53:36;1.50;99.90
11583;DHT22;34299;50.820;4.548;2024-01-27T03:56:04;1.50;99.90
11583;DHT22;34299;50.820;4.548;2024-01-27T03:58:31;1.60;99.90
11583;DHT22;34299;50.820;4.548;2024-01-27T04:00:59;1.50;99.90
11583;DHT22;34299;50.820;4.548;2024-01-27T04:03:25;1.40;99.90
11583;DHT22;34299;50.820;4.548;2024-01-27T04:05:53;1.50;99.90
11583;DHT22;34299;50.820;4.548;2024-01-27T04:08:21;1.60;99.90
11583;DHT22;34299;50.820;4.548;2024-01-27T04:10:48;1.50;99.90
11583;DHT22;34299;50.820;4.548;2024-01-27T04:13:15;1.60;99.90
11583;DHT22;34299;50.820;4.548;2024-01-27T04:15:42;1.70;99.90
11583;DHT22;34299;50.820;4.548;2024-01-27T04:18:10;1.70;99.90
11583;DHT22;34299;50.820;4.548;2024-01-27T04:20:37;1.70;99.90
11583;DHT22;34299;50.820;4.548;2024-01-27T04:23:04;1.80;99.90
11583;DHT22;34299;50.820;4.548;2024-01-27T04:25:32;1.80;99.90
11583;DHT22;34299;50.820;4.548;2024-01-27T04:27:59;1.80;99.90
11583;DHT22;34299;50.820;4.548;2024-01-27T04:30:26;2.10;99.90
11583;DHT22;34299;50.820;4.548;2024-01-27T04:32:53;1.80;99.90
11583;DHT22;34299;50.820;4.548;2024-01-27T04:35:20;1.90;99.90
11583;DHT22;34299;50.820;4.548;2024-01-27T04:37:48;1.90;99.90
11583;DHT22;34299;50.820;4.548;2024-01-27T04:40:15;1.90;99.90
11583;DHT22;34299;50.820;4.548;2024-01-27T04:42:43;1.90;99.90
11583;DHT22;34299;50.820;4.548;2024-01-27T04:45:14;2.10;99.90
11583;DHT22;34299;50.820;4.548;2024-01-27T04:47:41;2.00;99.90
11583;DHT22;34299;50.820;4.548;2024-01-27T04:50:09;1.90;99.90
11583;DHT22;34299;50.820;4.548;2024-01-27T04:52:36;1.90;99.90
11583;DHT22;34299;50.820;4.548;2024-01-27T04:55:03;1.90;99.90
11583;DHT22;34299;50.820;4.548;2024-01-27T04:57:30;1.80;99.90
11583;DHT22;34299;50.820;4.548;2024-01-27T04:59:58;1.80;99.90
11583;DHT22;34299;50.820;4.548;2024-01-27T05:02:25;1.80;99.90
11583;DHT22;34299;50.820;4.548;2024-01-27T05:04:53;1.70;99.90
11583;DHT22;34299;50.820;4.548;2024-01-27T05:07:20;1.80;99.90
11583;DHT22;34299;50.820;4.548;2024-01-27T05:09:47;1.60;99.90
11583;DHT22;34299;50.820;4.548;2024-01-27T05:12:14;1.60;99.90
11583;DHT22;34299;50.820;4.548;2024-01-27T05:14:43;1.70;99.90
11583;DHT22;34299;50.820;4.548;2024-01-27T05:17:12;1.70;99.90
11583;DHT22;34299;50.820;4.548;2024-01-27T05:19:39;1.70;99.90
11583;DHT22;34299;50.820;4.548;2024-01-27T05:22:05;1.60;99.90
11583;DHT22;34299;50.820;4.548;2024-01-27T05:24:32;1.90;99.90
11583;DHT22;34299;50.820;4.548;2024-01-27T05:27:00;1.80;99.90
11583;DHT22;34299;50.820;4.548;2024-01-27T05:29:28;1.80;99.90
11583;DHT22;34299;50.820;4.548;2024-01-27T05:31:54;1.80;99.90
11583;DHT22;34299;50.820;4.548;2024-01-27T05:34:23;1.80;99.90
11583;DHT22;34299;50.820;4.548;2024-01-27T05:36:50;1.90;99.90
11583;DHT22;34299;50.820;4.548;2024-01-27T05:39:17;1.90;99.90
11583;DHT22;34299;50.820;4.548;2024-01-27T05:41:44;1.80;99.90
11583;DHT22;34299;50.820;4.548;2024-01-27T05:44:11;1.70;99.90
11583;DHT22;34299;50.820;4.548;2024-01-27T05:46:37;1.60;99.90
11583;DHT22;34299;50.820;4.548;2024-01-27T05:49:04;1.40;99.90
11583;DHT22;34299;50.820;4.548;2024-01-27T05:51:32;1.30;99.90
11583;DHT22;34299;50.820;4.548;2024-01-27T05:53:59;1.30;99.90
11583;DHT22;34299;50.820;4.548;2024-01-27T05:56:26;1.30;99.90
11583;DHT22;34299;50.820;4.548;2024-01-27T05:58:53;1.50;99.90
11583;DHT22;34299;50.820;4.548;2024-01-27T06:01:20;1.30;99.90
11583;DHT22;34299;50.820;4.548;2024-01-27T06:03:47;1.20;99.90
11583;DHT22;34299;50.820;4.548;2024-01-27T06:06:14;1.10;99.90
11583;DHT22;34299;50.820;4.548;2024-01-27T06:08:42;1.00;99.90
11583;DHT22;34299;50.820;4.548;2024-01-27T06:11:09;1.10;99.90
11583;DHT22;34299;50.820;4.548;2024-01-27T06:13:37;1.00;99.90
11583;DHT22;34299;50.820;4.548;2024-01-27T06:16:09;1.10;99.90
11583;DHT22;34299;50.820;4.548;2024-01-27T06:18:36;1.00;99.90
11583;DHT22;34299;50.820;4.548;2024-01-27T06:21:04;1.10;99.90
11583;DHT22;34299;50.820;4.548;2024-01-27T06:23:31;1.00;99.90
11583;DHT22;34299;50.820;4.548;2024-01-27T06:26:03;1.00;99.90
11583;DHT22;34299;50.820;4.548;2024-01-27T06:28:30;1.30;99.90
11583;DHT22;34299;50.820;4.548;2024-01-27T06:30:57;1.10;99.90
11583;DHT22;34299;50.820;4.548;2024-01-27T06:33:24;1.00;99.90
11583;DHT22;34299;50.820;4.548;2024-01-27T06:35:51;1.10;99.90
11583;DHT22;34299;50.820;4.548;2024-01-27T06:38:18;1.10;99.90
11583;DHT22;34299;50.820;4.548;2024-01-27T06:40:45;1.10;99.90
11583;DHT22;34299;50.820;4.548;2024-01-27T06:43:14;1.10;99.90
11583;DHT22;34299;50.820;4.548;2024-01-27T06:45:41;1.20;99.90
11583;DHT22;34299;50.820;4.548;2024-01-27T06:48:07;1.00;99.90
11583;DHT22;34299;50.820;4.548;2024-01-27T06:50:34;0.90;99.90
11583;DHT22;34299;50.820;4.548;2024-01-27T06:53:01;1.10;99.90
11583;DHT22;34299;50.820;4.548;2024-01-27T06:55:28;0.80;99.90
11583;DHT22;34299;50.820;4.548;2024-01-27T06:57:55;0.90;99.90
11583;DHT22;34299;50.820;4.548;2024-01-27T07:00:24;0.90;99.90
11583;DHT22;34299;50.820;4.548;2024-01-27T07:02:51;0.90;99.90
11583;DHT22;34299;50.820;4.548;2024-01-27T07:05:18;0.90;99.90
11583;DHT22;34299;50.820;4.548;2024-01-27T07:07:45;0.80;99.90
11583;DHT22;34299;50.820;4.548;2024-01-27T07:10:12;0.80;99.90
11583;DHT22;34299;50.820;4.548;2024-01-27T07:12:38;0.70;99.90
11583;DHT22;34299;50.820;4.548;2024-01-27T07:15:06;0.80;99.90
11583;DHT22;34299;50.820;4.548;2024-01-27T07:17:34;0.80;99.90
11583;DHT22;34299;50.820;4.548;2024-01-27T07:20:01;0.70;99.90
11583;DHT22;34299;50.820;4.548;2024-01-27T07:22:28;0.70;99.90
11583;DHT22;34299;50.820;4.548;2024-01-27T07:24:55;0.80;99.90
11583;DHT22;34299;50.820;4.548;2024-01-27T07:27:22;0.80;99.90
11583;DHT22;34299;50.820;4.548;2024-01-27T07:29:49;0.90;99.90
11583;DHT22;34299;50.820;4.548;2024-01-27T07:32:16;0.70;99.90
11583;DHT22;34299;50.820;4.548;2024-01-27T07:34:44;0.70;99.90
11583;DHT22;34299;50.820;4.548;2024-01-27T07:37:11;0.90;99.90
11583;DHT22;34299;50.820;4.548;2024-01-27T07:39:38;0.80;99.90
11583;DHT22;34299;50.820;4.548;2024-01-27T07:42:05;0.80;99.90
11583;DHT22;34299;50.820;4.548;2024-01-27T07:44:32;0.80;99.90
11583;DHT22;34299;50.820;4.548;2024-01-27T07:46:59;0.90;99.90
11583;DHT22;34299;50.820;4.548;2024-01-27T07:49:26;0.80;99.90
11583;DHT22;34299;50.820;4.548;2024-01-27T07:51:55;0.80;99.90
11583;DHT22;34299;50.820;4.548;2024-01-27T07:54:22;0.70;99.90
11583;DHT22;34299;50.820;4.548;2024-01-27T07:56:49;0.80;99.90
11583;DHT22;34299;50.820;4.548;2024-01-27T07:59:16;0.80;99.90
11583;DHT22;34299;50.820;4.548;2024-01-27T08:01:43;0.80;99.90
11583;DHT22;34299;50.820;4.548;2024-01-27T08:04:10;0.90;99.90
11583;DHT22;34299;50.820;4.548;2024-01-27T08:06:46;0.90;99.90
11583;DHT22;34299;50.820;4.548;2024-01-27T08:09:15;1.00;99.90
11583;DHT22;34299;50.820;4.548;2024-01-27T08:11:42;1.00;99.90
11583;DHT22;34299;50.820;4.548;2024-01-27T08:14:09;1.10;99.90
11583;DHT22;34299;50.820;4.548;2024-01-27T08:16:36;1.20;99.90
11583;DHT22;34299;50.820;4.548;2024-01-27T08:19:03;1.20;99.90
11583;DHT22;34299;50.820;4.548;2024-01-27T08:21:30;1.20;99.90
11583;DHT22;34299;50.820;4.548;2024-01-27T08:23:57;1.20;99.90
11583;DHT22;34299;50.820;4.548;2024-01-27T08:26:26;1.30;99.90
11583;DHT22;34299;50.820;4.548;2024-01-27T08:28:52;1.30;99.90
11583;DHT22;34299;50.820;4.548;2024-01-27T08:31:21;1.30;99.90
11583;DHT22;34299;50.820;4.548;2024-01-27T08:33:48;1.40;99.90
11583;DHT22;34299;50.820;4.548;2024-01-27T08:36:15;1.50;99.90
11583;DHT22;34299;50.820;4.548;2024-01-27T08:38:42;1.50;99.90
11583;DHT22;34299;50.820;4.548;2024-01-27T08:41:10;1.50;99.90
11583;DHT22;34299;50.820;4.548;2024-01-27T08:43:39;1.60;99.90
11583;DHT22;34299;50.820;4.548;2024-01-27T08:46:06;1.60;99.90
11583;DHT22;34299;50.820;4.548;2024-01-27T08:48:36;1.70;99.90
11583;DHT22;34299;50.820;4.548;2024-01-27T08:51:04;1.70;99.90
11583;DHT22;34299;50.820;4.548;2024-01-27T08:53:31;1.80;99.90
11583;DHT22;34299;50.820;4.548;2024-01-27T08:55:57;1.80;99.90
11583;DHT22;34299;50.820;4.548;2024-01-27T08:58:24;1.80;99.90
11583;DHT22;34299;50.820;4.548;2024-01-27T09:00:53;2.00;99.90
11583;DHT22;34299;50.820;4.548;2024-01-27T09:03:20;2.30;99.90
11583;DHT22;34299;50.820;4.548;2024-01-27T09:05:47;2.20;99.90
11583;DHT22;34299;50.820;4.548;2024-01-27T09:08:14;2.20;99.90
11583;DHT22;34299;50.820;4.548;2024-01-27T09:10:42;2.30;99.90
11583;DHT22;34299;50.820;4.548;2024-01-27T09:13:09;2.50;99.90
11583;DHT22;34299;50.820;4.548;2024-01-27T09:15:36;2.70;99.90
11583;DHT22;34299;50.820;4.548;2024-01-27T09:18:05;2.70;99.90
11583;DHT22;34299;50.820;4.548;2024-01-27T09:20:32;2.80;99.90
11583;DHT22;34299;50.820;4.548;2024-01-27T09:22:59;2.80;99.90
11583;DHT22;34299;50.820;4.548;2024-01-27T09:25:26;3.20;99.90
11583;DHT22;34299;50.820;4.548;2024-01-27T09:27:53;3.20;99.90
11583;DHT22;34299;50.820;4.548;2024-01-27T09:30:20;3.20;99.90
11583;DHT22;34299;50.820;4.548;2024-01-27T09:32:47;3.30;99.90
11583;DHT22;34299;50.820;4.548;2024-01-27T09:35:16;3.40;99.90
11583;DHT22;34299;50.820;4.548;2024-01-27T09:37:43;3.60;99.90
11583;DHT22;34299;50.820;4.548;2024-01-27T09:40:12;3.40;99.90
11583;DHT22;34299;50.820;4.548;2024-01-27T09:42:39;3.60;99.90
11583;DHT22;34299;50.820;4.548;2024-01-27T09:45:09;3.70;99.90
11583;DHT22;34299;50.820;4.548;2024-01-27T09:47:36;3.90;99.90
11583;DHT22;34299;50.820;4.548;2024-01-27T09:50:06;3.90;99.90
11583;DHT22;34299;50.820;4.548;2024-01-27T09:52:36;4.10;99.90
11583;DHT22;34299;50.820;4.548;2024-01-27T09:55:03;4.10;99.90
11583;DHT22;34299;50.820;4.548;2024-01-27T09:57:31;4.20;99.90
11583;DHT22;34299;50.820;4.548;2024-01-27T09:59:58;4.30;99.90
11583;DHT22;34299;50.820;4.548;2024-01-27T10:02:26;4.50;99.90
11583;DHT22;34299;50.820;4.548;2024-01-27T10:04:54;4.70;99.90
11583;DHT22;34299;50.820;4.548;2024-01-27T10:07:21;4.90;99.90
11583;DHT22;34299;50.820;4.548;2024-01-27T10:09:50;4.90;99.90
11583;DHT22;34299;50.820;4.548;2024-01-27T10:12:18;5.30;99.90
11583;DHT22;34299;50.820;4.548;2024-01-27T10:14:47;5.50;99.90
11583;DHT22;34299;50.820;4.548;2024-01-27T10:17:20;5.80;99.90
11583;DHT22;34299;50.820;4.548;2024-01-27T10:19:47;6.50;99.90
11583;DHT22;34299;50.820;4.548;2024-01-27T10:22:26;7.00;99.90
11583;DHT22;34299;50.820;4.548;2024-01-27T10:24:55;7.60;99.90
11583;DHT22;34299;50.820;4.548;2024-01-27T10:27:22;8.10;99.90
11583;DHT22;34299;50.820;4.548;2024-01-27T10:29:52;8.30;99.90
11583;DHT22;34299;50.820;4.548;2024-01-27T10:32:19;8.50;99.90
11583;DHT22;34299;50.820;4.548;2024-01-27T10:34:49;8.50;99.90
11583;DHT22;34299;50.820;4.548;2024-01-27T10:37:16;8.80;99.90
11583;DHT22;34299;50.820;4.548;2024-01-27T10:40:00;8.90;99.90
11583;DHT22;34299;50.820;4.548;2024-01-27T10:42:29;8.60;99.90
11583;DHT22;34299;50.820;4.548;2024-01-27T10:44:58;8.30;99.90
11583;DHT22;34299;50.820;4.548;2024-01-27T10:47:27;8.20;99.90
11583;DHT22;34299;50.820;4.548;2024-01-27T10:49:55;8.20;99.90
11583;DHT22;34299;50.820;4.548;2024-01-27T10:52:24;7.90;99.90
11583;DHT22;34299;50.820;4.548;2024-01-27T10:54:57;7.70;99.90
11583;DHT22;34299;50.820;4.548;2024-01-27T10:57:27;7.60;99.90
11583;DHT22;34299;50.820;4.548;2024-01-27T10:59:56;7.30;99.90
11583;DHT22;34299;50.820;4.548;2024-01-27T11:02:24;7.30;99.90
11583;DHT22;34299;50.820;4.548;2024-01-27T11:04:51;7.40;99.90
11583;DHT22;34299;50.820;4.548;2024-01-27T11:07:19;7.70;99.90
11583;DHT22;34299;50.820;4.548;2024-01-27T11:09:49;8.40;99.90
11583;DHT22;34299;50.820;4.548;2024-01-27T11:12:17;9.60;99.90
11583;DHT22;34299;50.820;4.548;2024-01-27T11:14:46;9.50;99.90
11583;DHT22;34299;50.820;4.548;2024-01-27T11:17:14;9.70;99.90
11583;DHT22;34299;50.820;4.548;2024-01-27T11:19:41;10.20;99.90
11583;DHT22;34299;50.820;4.548;2024-01-27T11:22:17;10.60;99.90
11583;DHT22;34299;50.820;4.548;2024-01-27T11:24:49;10.80;99.90
11583;DHT22;34299;50.820;4.548;2024-01-27T11:27:16;10.30;99.90
11583;DHT22;34299;50.820;4.548;2024-01-27T11:29:48;10.70;99.90
11583;DHT22;34299;50.820;4.548;2024-01-27T11:32:15;10.80;99.90
11583;DHT22;34299;50.820;4.548;2024-01-27T11:34:43;11.00;99.90
11583;DHT22;34299;50.820;4.548;2024-01-27T11:37:14;11.30;99.90
11583;DHT22;34299;50.820;4.548;2024-01-27T11:39:41;11.40;99.90
11583;DHT22;34299;50.820;4.548;2024-01-27T11:42:10;11.00;99.90
11583;DHT22;34299;50.820;4.548;2024-01-27T11:44:38;10.70;99.90
11583;DHT22;34299;50.820;4.548;2024-01-27T11:47:14;10.30;99.90
11583;DHT22;34299;50.820;4.548;2024-01-27T11:49:42;10.10;99.90
11583;DHT22;34299;50.820;4.548;2024-01-27T11:52:09;10.20;99.90
11583;DHT22;34299;50.820;4.548;2024-01-27T11:54:36;10.10;99.90
11583;DHT22;34299;50.820;4.548;2024-01-27T11:57:04;9.80;99.90
11583;DHT22;34299;50.820;4.548;2024-01-27T11:59:33;10.10;99.90
11583;DHT22;34299;50.820;4.548;2024-01-27T12:02:00;10.00;99.90
11583;DHT22;34299;50.820;4.548;2024-01-27T12:04:29;10.00;99.90
11583;DHT22;34299;50.820;4.548;2024-01-27T12:06:56;10.10;99.90
11583;DHT22;34299;50.820;4.548;2024-01-27T12:09:23;10.20;99.90
11583;DHT22;34299;50.820;4.548;2024-01-27T12:11:50;9.90;99.90
11583;DHT22;34299;50.820;4.548;2024-01-27T12:14:17;10.30;99.90
11583;DHT22;34299;50.820;4.548;2024-01-27T12:16:44;10.20;99.90
11583;DHT22;34299;50.820;4.548;2024-01-27T12:19:13;10.60;99.90
11583;DHT22;34299;50.820;4.548;2024-01-27T12:21:48;10.80;99.90
11583;DHT22;34299;50.820;4.548;2024-01-27T12:24:16;10.80;99.90
11583;DHT22;34299;50.820;4.548;2024-01-27T12:26:44;11.00;99.90
11583;DHT22;34299;50.820;4.548;2024-01-27T12:29:11;11.20;99.90
11583;DHT22;34299;50.820;4.548;2024-01-27T12:31:38;11.80;99.90
11583;DHT22;34299;50.820;4.548;2024-01-27T12:34:07;12.40;99.90
11583;DHT22;34299;50.820;4.548;2024-01-27T12:36:39;12.40;99.90
11583;DHT22;34299;50.820;4.548;2024-01-27T12:39:08;12.50;99.90
11583;DHT22;34299;50.820;4.548;2024-01-27T12:41:36;11.90;99.90
11583;DHT22;34299;50.820;4.548;2024-01-27T12:44:03;11.80;99.90
11583;DHT22;34299;50.820;4.548;2024-01-27T12:46:30;11.70;99.90
11583;DHT22;34299;50.820;4.548;2024-01-27T12:48:57;11.80;99.90
11583;DHT22;34299;50.820;4.548;2024-01-27T12:51:24;11.30;99.90
11583;DHT22;34299;50.820;4.548;2024-01-27T12:53:51;12.00;99.90
11583;DHT22;34299;50.820;4.548;2024-01-27T12:56:19;12.30;99.90
11583;DHT22;34299;50.820;4.548;2024-01-27T12:58:46;11.70;99.90
11583;DHT22;34299;50.820;4.548;2024-01-27T13:01:13;12.30;99.90
11583;DHT22;34299;50.820;4.548;2024-01-27T13:03:41;13.30;99.90
11583;DHT22;34299;50.820;4.548;2024-01-27T13:06:08;13.90;99.90
11583;DHT22;34299;50.820;4.548;2024-01-27T13:08:36;14.30;99.90
11583;DHT22;34299;50.820;4.548;2024-01-27T13:11:03;14.90;99.90
11583;DHT22;34299;50.820;4.548;2024-01-27T13:13:32;14.70;99.90
11583;DHT22;34299;50.820;4.548;2024-01-27T13:15:58;14.10;99.90
11583;DHT22;34299;50.820;4.548;2024-01-27T13:18:26;13.80;99.90
11583;DHT22;34299;50.820;4.548;2024-01-27T13:20:52;13.40;99.90
11583;DHT22;34299;50.820;4.548;2024-01-27T13:23:19;13.60;99.90
11583;DHT22;34299;50.820;4.548;2024-01-27T13:25:46;14.10;99.90
11583;DHT22;34299;50.820;4.548;2024-01-27T13:28:13;14.00;99.90
11583;DHT22;34299;50.820;4.548;2024-01-27T13:30:41;14.50;99.90
11583;DHT22;34299;50.820;4.548;2024-01-27T13:33:08;14.50;99.90
11583;DHT22;34299;50.820;4.548;2024-01-27T13:35:37;14.40;99.90
11583;DHT22;34299;50.820;4.548;2024-01-27T13:38:05;14.50;99.90
11583;DHT22;34299;50.820;4.548;2024-01-27T13:40:32;14.40;99.90
11583;DHT22;34299;50.820;4.548;2024-01-27T13:42:59;14.00;99.90
11583;DHT22;34299;50.820;4.548;2024-01-27T13:45:26;13.10;99.90
11583;DHT22;34299;50.820;4.548;2024-01-27T13:47:55;12.80;99.90
11583;DHT22;34299;50.820;4.548;2024-01-27T13:50:22;12.60;99.90
11583;DHT22;34299;50.820;4.548;2024-01-27T13:52:51;12.40;99.90
11583;DHT22;34299;50.820;4.548;2024-01-27T13:55:18;11.90;99.90
11583;DHT22;34299;50.820;4.548;2024-01-27T13:57:45;12.50;99.90
11583;DHT22;34299;50.820;4.548;2024-01-27T14:00:13;12.60;99.90
11583;DHT22;34299;50.820;4.548;2024-01-27T14:02:40;12.60;99.90
11583;DHT22;34299;50.820;4.548;2024-01-27T14:05:09;12.80;99.90
11583;DHT22;34299;50.820;4.548;2024-01-27T14:07:36;13.00;99.90
11583;DHT22;34299;50.820;4.548;2024-01-27T14:10:03;13.40;99.90
11583;DHT22;34299;50.820;4.548;2024-01-27T14:12:30;13.90;99.90
11583;DHT22;34299;50.820;4.548;2024-01-27T14:15:03;13.40;99.90
11583;DHT22;34299;50.820;4.548;2024-01-27T14:17:32;13.10;99.90
11583;DHT22;34299;50.820;4.548;2024-01-27T14:20:00;13.00;99.90
11583;DHT22;34299;50.820;4.548;2024-01-27T14:22:29;13.30;99.90
11583;DHT22;34299;50.820;4.548;2024-01-27T14:24:56;13.80;99.90
11583;DHT22;34299;50.820;4.548;2024-01-27T14:27:23;14.20;99.90
11583;DHT22;34299;50.820;4.548;2024-01-27T14:29:52;14.00;99.90
11583;DHT22;34299;50.820;4.548;2024-01-27T14:32:19;13.70;99.90
11583;DHT22;34299;50.820;4.548;2024-01-27T14:34:47;14.20;99.90
11583;DHT22;34299;50.820;4.548;2024-01-27T14:37:14;14.10;99.90
11583;DHT22;34299;50.820;4.548;2024-01-27T14:39:43;13.50;99.90
11583;DHT22;34299;50.820;4.548;2024-01-27T14:42:11;13.10;99.90
11583;DHT22;34299;50.820;4.548;2024-01-27T14:44:38;12.30;99.90
11583;DHT22;34299;50.820;4.548;2024-01-27T14:47:06;12.00;99.90
11583;DHT22;34299;50.820;4.548;2024-01-27T14:49:34;11.80;99.90
11583;DHT22;34299;50.820;4.548;2024-01-27T14:52:04;11.70;99.90
11583;DHT22;34299;50.820;4.548;2024-01-27T14:54:31;11.50;99.90
11583;DHT22;34299;50.820;4.548;2024-01-27T14:56:59;11.40;99.90
11583;DHT22;34299;50.820;4.548;2024-01-27T14:59:26;11.10;99.90
11583;DHT22;34299;50.820;4.548;2024-01-27T15:01:54;11.00;99.90
11583;DHT22;34299;50.820;4.548;2024-01-27T15:04:22;10.90;99.90
11583;DHT22;34299;50.820;4.548;2024-01-27T15:06:52;10.80;99.90
11583;DHT22;34299;50.820;4.548;2024-01-27T15:09:19;10.60;99.90
11583;DHT22;34299;50.820;4.548;2024-01-27T15:11:46;10.40;99.90
11583;DHT22;34299;50.820;4.548;2024-01-27T15:14:14;10.30;99.90
11583;DHT22;34299;50.820;4.548;2024-01-27T15:16:41;10.20;99.90
11583;DHT22;34299;50.820;4.548;2024-01-27T15:19:08;10.40;99.90
11583;DHT22;34299;50.820;4.548;2024-01-27T15:21:35;10.30;99.90
11583;DHT22;34299;50.820;4.548;2024-01-27T15:24:02;10.30;99.90
11583;DHT22;34299;50.820;4.548;2024-01-27T15:26:29;10.30;99.90
11583;DHT22;34299;50.820;4.548;2024-01-27T15:28:57;10.40;99.90
11583;DHT22;34299;50.820;4.548;2024-01-27T15:31:25;10.30;99.90
11583;DHT22;34299;50.820;4.548;2024-01-27T15:33:53;10.30;99.90
11583;DHT22;34299;50.820;4.548;2024-01-27T15:36:20;10.20;99.90
11583;DHT22;34299;50.820;4.548;2024-01-27T15:38:47;10.20;99.90
11583;DHT22;34299;50.820;4.548;2024-01-27T15:41:14;10.10;99.90
11583;DHT22;34299;50.820;4.548;2024-01-27T15:43:44;10.10;99.90
11583;DHT22;34299;50.820;4.548;2024-01-27T15:46:13;9.90;99.90